sensor_id;sensor_type;location;lat;lon;timestamp;P1;durP1;ratioP1;P2;durP2;ratioP2
60078;SDS011;45951;45.824;8.824;2024-02-04T00:00:49;16.90;;;12.73;;
60078;SDS011;45951;45.824;8.824;2024-02-04T00:02:29;20.08;;;13.57;;
60078;SDS011;45951;45.824;8.824;2024-02-04T00:04:09;21.23;;;13.07;;
60078;SDS011;45951;45.824;8.824;2024-02-04T00:05:49;19.80;;;13.55;;
60078;SDS011;45951;45.824;8.824;2024-02-04T00:07:30;19.48;;;13.75;;
60078;SDS011;45951;45.824;8.824;2024-02-04T00:09:10;18.45;;;13.60;;
60078;SDS011;45951;45.824;8.824;2024-02-04T00:10:50;21.17;;;14.67;;
60078;SDS011;45951;45.824;8.824;2024-02-04T00:12:31;19.70;;;13.27;;
60078;SDS011;45951;45.824;8.824;2024-02-04T00:14:11;20.00;;;14.02;;
60078;SDS011;45951;45.824;8.824;2024-02-04T00:15:51;17.45;;;13.13;;
60078;SDS011;45951;45.824;8.824;2024-02-04T00:17:34;18.00;;;13.45;;
60078;SDS011;45951;45.824;8.824;2024-02-04T00:19:14;23.00;;;14.87;;
60078;SDS011;45951;45.824;8.824;2024-02-04T00:20:54;20.17;;;14.13;;
60078;SDS011;45951;45.824;8.824;2024-02-04T00:22:34;22.10;;;15.50;;
60078;SDS011;45951;45.824;8.824;2024-02-04T00:24:15;20.42;;;14.23;;
60078;SDS011;45951;45.824;8.824;2024-02-04T00:25:55;18.40;;;12.77;;
60078;SDS011;45951;45.824;8.824;2024-02-04T00:27:35;19.90;;;13.77;;
60078;SDS011;45951;45.824;8.824;2024-02-04T00:29:15;20.93;;;14.27;;
60078;SDS011;45951;45.824;8.824;2024-02-04T00:30:55;22.23;;;14.03;;
60078;SDS011;45951;45.824;8.824;2024-02-04T00:32:37;21.23;;;15.63;;
60078;SDS011;45951;45.824;8.824;2024-02-04T00:34:18;17.40;;;13.07;;
60078;SDS011;45951;45.824;8.824;2024-02-04T00:35:58;19.88;;;13.20;;
60078;SDS011;45951;45.824;8.824;2024-02-04T00:37:38;21.40;;;14.37;;
60078;SDS011;45951;45.824;8.824;2024-02-04T00:39:18;21.83;;;15.33;;
60078;SDS011;45951;45.824;8.824;2024-02-04T00:40:58;23.23;;;15.67;;
60078;SDS011;45951;45.824;8.824;2024-02-04T00:42:39;22.80;;;14.57;;
60078;SDS011;45951;45.824;8.824;2024-02-04T00:44:19;21.53;;;14.20;;
60078;SDS011;45951;45.824;8.824;2024-02-04T00:45:59;22.80;;;14.60;;
60078;SDS011;45951;45.824;8.824;2024-02-04T00:47:41;20.95;;;14.38;;
60078;SDS011;45951;45.824;8.824;2024-02-04T00:49:21;23.48;;;17.15;;
60078;SDS011;45951;45.824;8.824;2024-02-04T00:51:01;22.40;;;14.37;;
60078;SDS011;45951;45.824;8.824;2024-02-04T00:52:41;23.17;;;16.33;;
60078;SDS011;45951;45.824;8.824;2024-02-04T00:54:22;20.80;;;14.90;;
60078;SDS011;45951;45.824;8.824;2024-02-04T00:56:02;20.53;;;15.50;;
60078;SDS011;45951;45.824;8.824;2024-02-04T00:57:43;22.90;;;15.90;;
60078;SDS011;45951;45.824;8.824;2024-02-04T00:59:23;22.07;;;15.37;;
60078;SDS011;45951;45.824;8.824;2024-02-04T01:01:03;20.73;;;14.60;;
60078;SDS011;45951;45.824;8.824;2024-02-04T01:02:43;20.75;;;14.90;;
60078;SDS011;45951;45.824;8.824;2024-02-04T01:04:24;22.08;;;15.45;;
60078;SDS011;45951;45.824;8.824;2024-02-04T01:06:04;20.50;;;15.37;;
60078;SDS011;45951;45.824;8.824;2024-02-04T01:07:44;21.30;;;14.73;;
60078;SDS011;45951;45.824;8.824;2024-02-04T01:09:25;21.15;;;13.68;;
60078;SDS011;45951;45.824;8.824;2024-02-04T01:11:05;20.37;;;14.20;;
60078;SDS011;45951;45.824;8.824;2024-02-04T01:12:45;19.23;;;13.73;;
60078;SDS011;45951;45.824;8.824;2024-02-04T01:14:26;21.27;;;14.53;;
60078;SDS011;45951;45.824;8.824;2024-02-04T01:16:06;19.25;;;13.88;;
60078;SDS011;45951;45.824;8.824;2024-02-04T01:17:46;18.30;;;12.95;;
60078;SDS011;45951;45.824;8.824;2024-02-04T01:19:26;19.90;;;13.57;;
60078;SDS011;45951;45.824;8.824;2024-02-04T01:21:07;19.67;;;13.30;;
60078;SDS011;45951;45.824;8.824;2024-02-04T01:22:49;20.27;;;12.73;;
60078;SDS011;45951;45.824;8.824;2024-02-04T01:24:29;17.93;;;12.90;;
60078;SDS011;45951;45.824;8.824;2024-02-04T01:26:11;18.00;;;13.18;;
60078;SDS011;45951;45.824;8.824;2024-02-04T01:27:51;17.20;;;12.85;;
60078;SDS011;45951;45.824;8.824;2024-02-04T01:29:31;18.83;;;13.20;;
60078;SDS011;45951;45.824;8.824;2024-02-04T01:31:11;18.70;;;13.03;;
60078;SDS011;45951;45.824;8.824;2024-02-04T01:32:52;18.93;;;13.50;;
60078;SDS011;45951;45.824;8.824;2024-02-04T01:34:32;19.60;;;13.05;;
60078;SDS011;45951;45.824;8.824;2024-02-04T01:36:12;19.87;;;14.23;;
60078;SDS011;45951;45.824;8.824;2024-02-04T01:37:52;22.10;;;15.07;;
60078;SDS011;45951;45.824;8.824;2024-02-04T01:39:32;19.00;;;14.57;;
60078;SDS011;45951;45.824;8.824;2024-02-04T01:41:13;21.30;;;13.70;;
60078;SDS011;45951;45.824;8.824;2024-02-04T01:42:53;22.65;;;14.75;;
60078;SDS011;45951;45.824;8.824;2024-02-04T01:44:33;21.57;;;14.80;;
60078;SDS011;45951;45.824;8.824;2024-02-04T01:46:14;23.30;;;15.07;;
60078;SDS011;45951;45.824;8.824;2024-02-04T01:47:54;21.35;;;14.70;;
60078;SDS011;45951;45.824;8.824;2024-02-04T01:49:34;20.33;;;13.75;;
60078;SDS011;45951;45.824;8.824;2024-02-04T01:51:15;22.40;;;13.93;;
60078;SDS011;45951;45.824;8.824;2024-02-04T01:52:57;19.92;;;14.60;;
60078;SDS011;45951;45.824;8.824;2024-02-04T01:54:37;20.30;;;14.07;;
60078;SDS011;45951;45.824;8.824;2024-02-04T01:56:19;17.98;;;12.73;;
60078;SDS011;45951;45.824;8.824;2024-02-04T01:57:59;22.10;;;14.52;;
60078;SDS011;45951;45.824;8.824;2024-02-04T01:59:39;21.08;;;13.65;;
60078;SDS011;45951;45.824;8.824;2024-02-04T02:01:20;17.05;;;12.13;;
60078;SDS011;45951;45.824;8.824;2024-02-04T02:03:00;18.30;;;12.02;;
60078;SDS011;45951;45.824;8.824;2024-02-04T02:04:41;19.90;;;12.68;;
60078;SDS011;45951;45.824;8.824;2024-02-04T02:06:22;18.83;;;12.75;;
60078;SDS011;45951;45.824;8.824;2024-02-04T02:08:02;17.30;;;11.43;;
60078;SDS011;45951;45.824;8.824;2024-02-04T02:09:42;18.50;;;12.25;;
60078;SDS011;45951;45.824;8.824;2024-02-04T02:11:27;19.92;;;12.40;;
60078;SDS011;45951;45.824;8.824;2024-02-04T02:13:14;18.30;;;12.05;;
60078;SDS011;45951;45.824;8.824;2024-02-04T02:15:14;17.52;;;11.48;;
60078;SDS011;45951;45.824;8.824;2024-02-04T02:16:55;18.48;;;11.75;;
60078;SDS011;45951;45.824;8.824;2024-02-04T02:18:42;15.85;;;11.52;;
60078;SDS011;45951;45.824;8.824;2024-02-04T02:20:52;15.40;;;10.98;;
60078;SDS011;45951;45.824;8.824;2024-02-04T02:25:51;16.55;;;10.70;;
60078;SDS011;45951;45.824;8.824;2024-02-04T02:27:31;14.15;;;9.30;;
60078;SDS011;45951;45.824;8.824;2024-02-04T02:29:11;14.23;;;9.10;;
60078;SDS011;45951;45.824;8.824;2024-02-04T02:30:52;14.27;;;9.70;;
60078;SDS011;45951;45.824;8.824;2024-02-04T02:32:32;14.07;;;9.27;;
60078;SDS011;45951;45.824;8.824;2024-02-04T02:34:12;17.20;;;10.73;;
60078;SDS011;45951;45.824;8.824;2024-02-04T02:35:53;16.88;;;9.82;;
60078;SDS011;45951;45.824;8.824;2024-02-04T02:37:38;16.75;;;11.45;;
60078;SDS011;45951;45.824;8.824;2024-02-04T02:39:34;14.88;;;10.18;;
60078;SDS011;45951;45.824;8.824;2024-02-04T02:41:15;13.77;;;9.88;;
60078;SDS011;45951;45.824;8.824;2024-02-04T02:42:56;13.43;;;8.00;;
60078;SDS011;45951;45.824;8.824;2024-02-04T02:44:37;11.65;;;7.50;;
60078;SDS011;45951;45.824;8.824;2024-02-04T02:46:18;10.55;;;7.00;;
60078;SDS011;45951;45.824;8.824;2024-02-04T02:47:59;9.90;;;6.13;;
60078;SDS011;45951;45.824;8.824;2024-02-04T02:49:39;10.10;;;5.68;;
60078;SDS011;45951;45.824;8.824;2024-02-04T02:51:20;5.57;;;3.40;;
60078;SDS011;45951;45.824;8.824;2024-02-04T02:53:00;5.40;;;3.07;;
60078;SDS011;45951;45.824;8.824;2024-02-04T02:54:40;3.87;;;2.63;;
60078;SDS011;45951;45.824;8.824;2024-02-04T02:56:20;4.67;;;2.60;;
60078;SDS011;45951;45.824;8.824;2024-02-04T02:58:00;5.10;;;3.17;;
60078;SDS011;45951;45.824;8.824;2024-02-04T02:59:41;4.87;;;2.53;;
60078;SDS011;45951;45.824;8.824;2024-02-04T03:01:21;3.00;;;2.03;;
60078;SDS011;45951;45.824;8.824;2024-02-04T03:03:01;4.40;;;2.20;;
60078;SDS011;45951;45.824;8.824;2024-02-04T03:04:41;5.70;;;3.20;;
60078;SDS011;45951;45.824;8.824;2024-02-04T03:06:21;7.07;;;3.80;;
60078;SDS011;45951;45.824;8.824;2024-02-04T03:08:02;8.83;;;4.53;;
60078;SDS011;45951;45.824;8.824;2024-02-04T03:09:42;14.60;;;8.88;;
60078;SDS011;45951;45.824;8.824;2024-02-04T03:11:23;14.27;;;9.40;;
60078;SDS011;45951;45.824;8.824;2024-02-04T03:13:03;10.50;;;7.37;;
60078;SDS011;45951;45.824;8.824;2024-02-04T03:14:44;13.63;;;8.50;;
60078;SDS011;45951;45.824;8.824;2024-02-04T03:16:24;15.67;;;10.40;;
60078;SDS011;45951;45.824;8.824;2024-02-04T03:18:04;11.13;;;7.37;;
60078;SDS011;45951;45.824;8.824;2024-02-04T03:19:44;13.73;;;9.33;;
60078;SDS011;45951;45.824;8.824;2024-02-04T03:21:27;15.82;;;9.10;;
60078;SDS011;45951;45.824;8.824;2024-02-04T03:23:07;13.73;;;9.17;;
60078;SDS011;45951;45.824;8.824;2024-02-04T03:24:48;14.90;;;9.60;;
60078;SDS011;45951;45.824;8.824;2024-02-04T03:26:28;12.93;;;8.60;;
60078;SDS011;45951;45.824;8.824;2024-02-04T03:28:08;15.97;;;9.47;;
60078;SDS011;45951;45.824;8.824;2024-02-04T03:29:48;15.97;;;10.80;;
60078;SDS011;45951;45.824;8.824;2024-02-04T03:31:28;14.40;;;10.20;;
60078;SDS011;45951;45.824;8.824;2024-02-04T03:33:09;20.60;;;12.63;;
60078;SDS011;45951;45.824;8.824;2024-02-04T03:34:49;19.23;;;12.10;;
60078;SDS011;45951;45.824;8.824;2024-02-04T03:36:30;16.40;;;12.03;;
60078;SDS011;45951;45.824;8.824;2024-02-04T03:38:10;15.68;;;10.32;;
60078;SDS011;45951;45.824;8.824;2024-02-04T03:39:50;16.40;;;10.37;;
60078;SDS011;45951;45.824;8.824;2024-02-04T03:41:30;15.77;;;10.00;;
60078;SDS011;45951;45.824;8.824;2024-02-04T03:43:10;14.53;;;9.80;;
60078;SDS011;45951;45.824;8.824;2024-02-04T03:44:51;19.10;;;12.73;;
60078;SDS011;45951;45.824;8.824;2024-02-04T03:46:31;20.23;;;12.93;;
60078;SDS011;45951;45.824;8.824;2024-02-04T03:48:11;19.38;;;13.05;;
60078;SDS011;45951;45.824;8.824;2024-02-04T03:49:51;18.77;;;12.63;;
60078;SDS011;45951;45.824;8.824;2024-02-04T03:51:31;19.53;;;13.87;;
60078;SDS011;45951;45.824;8.824;2024-02-04T03:53:12;21.70;;;14.40;;
60078;SDS011;45951;45.824;8.824;2024-02-04T03:54:52;19.10;;;13.13;;
60078;SDS011;45951;45.824;8.824;2024-02-04T03:56:32;20.63;;;13.33;;
60078;SDS011;45951;45.824;8.824;2024-02-04T03:58:12;19.00;;;12.48;;
60078;SDS011;45951;45.824;8.824;2024-02-04T03:59:52;15.20;;;11.27;;
60078;SDS011;45951;45.824;8.824;2024-02-04T04:01:33;16.37;;;10.33;;
60078;SDS011;45951;45.824;8.824;2024-02-04T04:03:13;16.33;;;11.82;;
60078;SDS011;45951;45.824;8.824;2024-02-04T04:04:53;17.13;;;11.17;;
60078;SDS011;45951;45.824;8.824;2024-02-04T04:06:33;16.67;;;11.63;;
60078;SDS011;45951;45.824;8.824;2024-02-04T04:08:14;15.95;;;10.65;;
60078;SDS011;45951;45.824;8.824;2024-02-04T04:09:54;14.80;;;10.83;;
60078;SDS011;45951;45.824;8.824;2024-02-04T04:11:34;15.10;;;10.00;;
60078;SDS011;45951;45.824;8.824;2024-02-04T04:13:14;15.27;;;10.20;;
60078;SDS011;45951;45.824;8.824;2024-02-04T04:14:54;15.30;;;10.23;;
60078;SDS011;45951;45.824;8.824;2024-02-04T04:16:35;15.07;;;10.35;;
60078;SDS011;45951;45.824;8.824;2024-02-04T04:18:15;15.98;;;9.80;;
60078;SDS011;45951;45.824;8.824;2024-02-04T04:19:55;14.27;;;9.47;;
60078;SDS011;45951;45.824;8.824;2024-02-04T04:21:37;12.10;;;8.63;;
60078;SDS011;45951;45.824;8.824;2024-02-04T04:23:17;14.27;;;9.43;;
60078;SDS011;45951;45.824;8.824;2024-02-04T04:25:00;14.95;;;8.70;;
60078;SDS011;45951;45.824;8.824;2024-02-04T04:26:40;14.50;;;9.30;;
60078;SDS011;45951;45.824;8.824;2024-02-04T04:28:20;10.80;;;8.23;;
60078;SDS011;45951;45.824;8.824;2024-02-04T04:30:00;11.07;;;8.40;;
60078;SDS011;45951;45.824;8.824;2024-02-04T04:31:41;11.93;;;8.07;;
60078;SDS011;45951;45.824;8.824;2024-02-04T04:33:21;11.40;;;7.53;;
60078;SDS011;45951;45.824;8.824;2024-02-04T04:35:02;11.38;;;7.40;;
60078;SDS011;45951;45.824;8.824;2024-02-04T04:36:42;12.00;;;7.40;;
60078;SDS011;45951;45.824;8.824;2024-02-04T04:38:22;13.18;;;8.05;;
60078;SDS011;45951;45.824;8.824;2024-02-04T04:40:02;9.97;;;6.57;;
60078;SDS011;45951;45.824;8.824;2024-02-04T04:41:43;10.25;;;6.40;;
60078;SDS011;45951;45.824;8.824;2024-02-04T04:43:24;10.50;;;6.80;;
60078;SDS011;45951;45.824;8.824;2024-02-04T04:45:04;10.10;;;7.03;;
60078;SDS011;45951;45.824;8.824;2024-02-04T04:46:44;12.35;;;6.88;;
60078;SDS011;45951;45.824;8.824;2024-02-04T04:48:25;8.73;;;6.10;;
60078;SDS011;45951;45.824;8.824;2024-02-04T04:50:05;9.97;;;6.13;;
60078;SDS011;45951;45.824;8.824;2024-02-04T04:51:46;10.13;;;6.10;;
60078;SDS011;45951;45.824;8.824;2024-02-04T04:53:26;9.32;;;5.85;;
60078;SDS011;45951;45.824;8.824;2024-02-04T04:55:06;9.67;;;5.90;;
60078;SDS011;45951;45.824;8.824;2024-02-04T04:56:47;9.68;;;5.85;;
60078;SDS011;45951;45.824;8.824;2024-02-04T04:58:27;9.20;;;5.80;;
60078;SDS011;45951;45.824;8.824;2024-02-04T05:00:07;9.03;;;5.77;;
60078;SDS011;45951;45.824;8.824;2024-02-04T05:01:50;9.35;;;5.30;;
60078;SDS011;45951;45.824;8.824;2024-02-04T05:03:30;8.52;;;5.32;;
60078;SDS011;45951;45.824;8.824;2024-02-04T05:05:10;9.57;;;5.37;;
60078;SDS011;45951;45.824;8.824;2024-02-04T05:06:51;8.90;;;6.03;;
60078;SDS011;45951;45.824;8.824;2024-02-04T05:08:31;10.52;;;6.13;;
60078;SDS011;45951;45.824;8.824;2024-02-04T05:10:12;10.27;;;5.97;;
60078;SDS011;45951;45.824;8.824;2024-02-04T05:11:52;9.85;;;5.97;;
60078;SDS011;45951;45.824;8.824;2024-02-04T05:13:32;9.07;;;5.57;;
60078;SDS011;45951;45.824;8.824;2024-02-04T05:15:12;9.20;;;5.90;;
60078;SDS011;45951;45.824;8.824;2024-02-04T05:16:53;9.32;;;6.20;;
60078;SDS011;45951;45.824;8.824;2024-02-04T05:18:33;7.50;;;5.20;;
60078;SDS011;45951;45.824;8.824;2024-02-04T05:20:13;8.17;;;5.70;;
60078;SDS011;45951;45.824;8.824;2024-02-04T05:21:53;7.80;;;5.50;;
60078;SDS011;45951;45.824;8.824;2024-02-04T05:23:33;8.65;;;5.38;;
60078;SDS011;45951;45.824;8.824;2024-02-04T05:25:14;8.93;;;5.40;;
60078;SDS011;45951;45.824;8.824;2024-02-04T05:26:54;9.30;;;5.38;;
60078;SDS011;45951;45.824;8.824;2024-02-04T05:28:34;9.07;;;5.50;;
60078;SDS011;45951;45.824;8.824;2024-02-04T05:30:14;8.47;;;4.80;;
60078;SDS011;45951;45.824;8.824;2024-02-04T05:31:55;8.25;;;4.70;;
60078;SDS011;45951;45.824;8.824;2024-02-04T05:33:35;7.10;;;4.30;;
60078;SDS011;45951;45.824;8.824;2024-02-04T05:35:16;7.13;;;4.00;;
60078;SDS011;45951;45.824;8.824;2024-02-04T05:36:56;7.35;;;3.80;;
60078;SDS011;45951;45.824;8.824;2024-02-04T05:38:36;7.17;;;4.47;;
60078;SDS011;45951;45.824;8.824;2024-02-04T05:40:16;6.40;;;3.80;;
60078;SDS011;45951;45.824;8.824;2024-02-04T05:41:58;6.95;;;3.70;;
60078;SDS011;45951;45.824;8.824;2024-02-04T05:43:39;5.33;;;2.80;;
60078;SDS011;45951;45.824;8.824;2024-02-04T05:45:19;5.75;;;3.78;;
60078;SDS011;45951;45.824;8.824;2024-02-04T05:46:59;6.00;;;2.95;;
60078;SDS011;45951;45.824;8.824;2024-02-04T05:48:40;4.82;;;2.58;;
60078;SDS011;45951;45.824;8.824;2024-02-04T05:50:24;4.93;;;3.03;;
60078;SDS011;45951;45.824;8.824;2024-02-04T05:52:04;4.17;;;2.30;;
60078;SDS011;45951;45.824;8.824;2024-02-04T05:53:44;5.15;;;2.20;;
60078;SDS011;45951;45.824;8.824;2024-02-04T05:55:25;4.33;;;2.60;;
60078;SDS011;45951;45.824;8.824;2024-02-04T05:57:05;5.78;;;3.05;;
60078;SDS011;45951;45.824;8.824;2024-02-04T05:58:46;4.82;;;2.63;;
60078;SDS011;45951;45.824;8.824;2024-02-04T06:00:27;5.57;;;2.35;;
60078;SDS011;45951;45.824;8.824;2024-02-04T06:02:07;3.92;;;2.30;;
60078;SDS011;45951;45.824;8.824;2024-02-04T06:03:47;4.33;;;2.20;;
60078;SDS011;45951;45.824;8.824;2024-02-04T06:05:27;3.90;;;2.25;;
60078;SDS011;45951;45.824;8.824;2024-02-04T06:07:08;3.70;;;2.13;;
60078;SDS011;45951;45.824;8.824;2024-02-04T06:08:48;4.70;;;2.50;;
60078;SDS011;45951;45.824;8.824;2024-02-04T06:10:28;4.43;;;2.40;;
60078;SDS011;45951;45.824;8.824;2024-02-04T06:12:09;4.05;;;2.10;;
60078;SDS011;45951;45.824;8.824;2024-02-04T06:13:49;4.38;;;2.22;;
60078;SDS011;45951;45.824;8.824;2024-02-04T06:15:29;3.87;;;2.10;;
60078;SDS011;45951;45.824;8.824;2024-02-04T06:17:09;3.83;;;1.97;;
60078;SDS011;45951;45.824;8.824;2024-02-04T06:18:50;2.58;;;1.58;;
60078;SDS011;45951;45.824;8.824;2024-02-04T06:20:30;3.10;;;1.95;;
60078;SDS011;45951;45.824;8.824;2024-02-04T06:22:10;2.37;;;1.60;;
60078;SDS011;45951;45.824;8.824;2024-02-04T06:23:50;3.00;;;1.70;;
60078;SDS011;45951;45.824;8.824;2024-02-04T06:25:31;3.58;;;1.70;;
60078;SDS011;45951;45.824;8.824;2024-02-04T06:27:11;3.00;;;1.87;;
60078;SDS011;45951;45.824;8.824;2024-02-04T06:28:51;2.33;;;1.77;;
60078;SDS011;45951;45.824;8.824;2024-02-04T06:30:31;2.35;;;1.58;;
60078;SDS011;45951;45.824;8.824;2024-02-04T06:32:11;1.83;;;1.27;;
60078;SDS011;45951;45.824;8.824;2024-02-04T06:33:53;1.55;;;1.08;;
60078;SDS011;45951;45.824;8.824;2024-02-04T06:35:33;2.03;;;1.20;;
60078;SDS011;45951;45.824;8.824;2024-02-04T06:37:13;1.60;;;1.30;;
60078;SDS011;45951;45.824;8.824;2024-02-04T06:38:53;1.37;;;0.83;;
60078;SDS011;45951;45.824;8.824;2024-02-04T06:40:34;1.45;;;1.13;;
60078;SDS011;45951;45.824;8.824;2024-02-04T06:42:14;0.93;;;0.80;;
60078;SDS011;45951;45.824;8.824;2024-02-04T06:43:54;1.88;;;1.15;;
60078;SDS011;45951;45.824;8.824;2024-02-04T06:45:34;2.63;;;1.60;;
60078;SDS011;45951;45.824;8.824;2024-02-04T06:47:14;3.97;;;1.73;;
60078;SDS011;45951;45.824;8.824;2024-02-04T06:48:55;3.50;;;1.20;;
60078;SDS011;45951;45.824;8.824;2024-02-04T06:50:35;3.03;;;1.98;;
60078;SDS011;45951;45.824;8.824;2024-02-04T06:52:16;3.70;;;1.85;;
60078;SDS011;45951;45.824;8.824;2024-02-04T06:53:56;2.13;;;1.53;;
60078;SDS011;45951;45.824;8.824;2024-02-04T06:55:36;3.20;;;1.63;;
60078;SDS011;45951;45.824;8.824;2024-02-04T06:57:16;4.07;;;2.03;;
60078;SDS011;45951;45.824;8.824;2024-02-04T06:58:57;3.73;;;1.57;;
60078;SDS011;45951;45.824;8.824;2024-02-04T07:00:37;2.53;;;1.50;;
60078;SDS011;45951;45.824;8.824;2024-02-04T07:02:17;2.60;;;1.80;;
60078;SDS011;45951;45.824;8.824;2024-02-04T07:03:57;2.65;;;1.60;;
60078;SDS011;45951;45.824;8.824;2024-02-04T07:05:37;4.82;;;1.95;;
60078;SDS011;45951;45.824;8.824;2024-02-04T07:07:18;4.77;;;2.03;;
60078;SDS011;45951;45.824;8.824;2024-02-04T07:08:58;8.98;;;2.67;;
60078;SDS011;45951;45.824;8.824;2024-02-04T07:10:39;7.82;;;3.47;;
60078;SDS011;45951;45.824;8.824;2024-02-04T07:12:19;6.47;;;3.63;;
60078;SDS011;45951;45.824;8.824;2024-02-04T07:13:59;5.70;;;3.45;;
60078;SDS011;45951;45.824;8.824;2024-02-04T07:15:40;5.90;;;3.45;;
60078;SDS011;45951;45.824;8.824;2024-02-04T07:17:20;6.28;;;3.30;;
60078;SDS011;45951;45.824;8.824;2024-02-04T07:19:00;5.83;;;3.73;;
60078;SDS011;45951;45.824;8.824;2024-02-04T07:20:40;6.70;;;3.30;;
60078;SDS011;45951;45.824;8.824;2024-02-04T07:22:21;6.95;;;3.05;;
60078;SDS011;45951;45.824;8.824;2024-02-04T07:24:01;7.23;;;3.30;;
60078;SDS011;45951;45.824;8.824;2024-02-04T07:25:41;7.75;;;3.45;;
60078;SDS011;45951;45.824;8.824;2024-02-04T07:27:21;5.85;;;3.10;;
60078;SDS011;45951;45.824;8.824;2024-02-04T07:29:01;5.50;;;3.00;;
60078;SDS011;45951;45.824;8.824;2024-02-04T07:30:41;6.33;;;3.43;;
60078;SDS011;45951;45.824;8.824;2024-02-04T07:32:22;6.30;;;3.30;;
60078;SDS011;45951;45.824;8.824;2024-02-04T07:34:04;7.70;;;3.17;;
60078;SDS011;45951;45.824;8.824;2024-02-04T07:35:44;6.65;;;3.60;;
60078;SDS011;45951;45.824;8.824;2024-02-04T07:37:24;8.50;;;3.60;;
60078;SDS011;45951;45.824;8.824;2024-02-04T07:39:04;6.28;;;3.20;;
60078;SDS011;45951;45.824;8.824;2024-02-04T07:40:45;7.35;;;3.55;;
60078;SDS011;45951;45.824;8.824;2024-02-04T07:42:25;7.88;;;3.28;;
60078;SDS011;45951;45.824;8.824;2024-02-04T07:44:05;7.03;;;4.47;;
60078;SDS011;45951;45.824;8.824;2024-02-04T07:45:46;7.05;;;4.15;;
60078;SDS011;45951;45.824;8.824;2024-02-04T07:47:26;7.78;;;3.50;;
60078;SDS011;45951;45.824;8.824;2024-02-04T07:49:06;7.85;;;3.80;;
60078;SDS011;45951;45.824;8.824;2024-02-04T07:50:47;6.85;;;4.30;;
60078;SDS011;45951;45.824;8.824;2024-02-04T07:52:27;9.05;;;5.47;;
60078;SDS011;45951;45.824;8.824;2024-02-04T07:54:07;10.70;;;7.23;;
60078;SDS011;45951;45.824;8.824;2024-02-04T07:55:47;8.90;;;4.80;;
60078;SDS011;45951;45.824;8.824;2024-02-04T07:57:29;8.90;;;5.60;;
60078;SDS011;45951;45.824;8.824;2024-02-04T07:59:10;11.02;;;6.10;;
60078;SDS011;45951;45.824;8.824;2024-02-04T08:00:50;9.67;;;5.63;;
60078;SDS011;45951;45.824;8.824;2024-02-04T08:02:30;12.37;;;7.83;;
60078;SDS011;45951;45.824;8.824;2024-02-04T08:04:11;11.68;;;5.85;;
60078;SDS011;45951;45.824;8.824;2024-02-04T08:05:52;11.65;;;7.03;;
60078;SDS011;45951;45.824;8.824;2024-02-04T08:07:32;11.85;;;7.20;;
60078;SDS011;45951;45.824;8.824;2024-02-04T08:09:12;9.88;;;6.50;;
60078;SDS011;45951;45.824;8.824;2024-02-04T08:10:52;14.50;;;7.35;;
60078;SDS011;45951;45.824;8.824;2024-02-04T08:12:33;12.32;;;8.00;;
60078;SDS011;45951;45.824;8.824;2024-02-04T08:14:13;12.97;;;7.63;;
60078;SDS011;45951;45.824;8.824;2024-02-04T08:15:57;12.95;;;7.70;;
60078;SDS011;45951;45.824;8.824;2024-02-04T08:17:37;13.93;;;7.05;;
60078;SDS011;45951;45.824;8.824;2024-02-04T08:19:18;11.70;;;7.57;;
60078;SDS011;45951;45.824;8.824;2024-02-04T08:20:58;12.82;;;8.20;;
60078;SDS011;45951;45.824;8.824;2024-02-04T08:22:38;15.80;;;9.03;;
60078;SDS011;45951;45.824;8.824;2024-02-04T08:24:18;15.87;;;7.97;;
60078;SDS011;45951;45.824;8.824;2024-02-04T08:25:59;13.00;;;7.95;;
60078;SDS011;45951;45.824;8.824;2024-02-04T08:27:39;12.10;;;7.68;;
60078;SDS011;45951;45.824;8.824;2024-02-04T08:29:20;12.57;;;7.90;;
60078;SDS011;45951;45.824;8.824;2024-02-04T08:31:00;12.67;;;7.33;;
60078;SDS011;45951;45.824;8.824;2024-02-04T08:32:40;12.82;;;7.70;;
60078;SDS011;45951;45.824;8.824;2024-02-04T08:34:20;12.43;;;8.20;;
60078;SDS011;45951;45.824;8.824;2024-02-04T08:36:04;13.77;;;8.15;;
60078;SDS011;45951;45.824;8.824;2024-02-04T08:37:46;13.23;;;8.75;;
60078;SDS011;45951;45.824;8.824;2024-02-04T08:39:26;11.90;;;7.50;;
60078;SDS011;45951;45.824;8.824;2024-02-04T08:41:06;11.13;;;7.37;;
60078;SDS011;45951;45.824;8.824;2024-02-04T08:42:47;14.07;;;7.70;;
60078;SDS011;45951;45.824;8.824;2024-02-04T08:44:27;12.80;;;7.85;;
60078;SDS011;45951;45.824;8.824;2024-02-04T08:46:07;12.53;;;7.47;;
60078;SDS011;45951;45.824;8.824;2024-02-04T08:49:36;15.73;;;6.82;;
60078;SDS011;45951;45.824;8.824;2024-02-04T08:51:16;13.80;;;6.85;;
60078;SDS011;45951;45.824;8.824;2024-02-04T08:52:58;11.88;;;6.80;;
60078;SDS011;45951;45.824;8.824;2024-02-04T08:54:38;12.85;;;6.97;;
60078;SDS011;45951;45.824;8.824;2024-02-04T08:56:19;11.18;;;6.90;;
60078;SDS011;45951;45.824;8.824;2024-02-04T08:57:59;11.90;;;6.90;;
60078;SDS011;45951;45.824;8.824;2024-02-04T08:59:39;10.40;;;6.40;;
60078;SDS011;45951;45.824;8.824;2024-02-04T09:01:19;10.63;;;6.53;;
60078;SDS011;45951;45.824;8.824;2024-02-04T09:03:00;9.73;;;6.32;;
60078;SDS011;45951;45.824;8.824;2024-02-04T09:04:40;11.93;;;5.95;;
60078;SDS011;45951;45.824;8.824;2024-02-04T09:06:20;7.80;;;5.40;;
60078;SDS011;45951;45.824;8.824;2024-02-04T09:08:00;14.23;;;8.82;;
60078;SDS011;45951;45.824;8.824;2024-02-04T09:09:41;14.15;;;8.63;;
60078;SDS011;45951;45.824;8.824;2024-02-04T09:11:22;11.25;;;6.97;;
60078;SDS011;45951;45.824;8.824;2024-02-04T09:13:02;15.00;;;7.63;;
60078;SDS011;45951;45.824;8.824;2024-02-04T09:14:42;9.30;;;6.00;;
60078;SDS011;45951;45.824;8.824;2024-02-04T09:16:23;12.18;;;6.88;;
60078;SDS011;45951;45.824;8.824;2024-02-04T09:18:03;16.15;;;7.13;;
60078;SDS011;45951;45.824;8.824;2024-02-04T09:19:43;12.23;;;7.32;;
60078;SDS011;45951;45.824;8.824;2024-02-04T09:21:24;10.63;;;7.10;;
60078;SDS011;45951;45.824;8.824;2024-02-04T09:23:04;12.80;;;7.47;;
60078;SDS011;45951;45.824;8.824;2024-02-04T09:24:45;12.68;;;8.18;;
60078;SDS011;45951;45.824;8.824;2024-02-04T09:26:25;13.02;;;8.18;;
60078;SDS011;45951;45.824;8.824;2024-02-04T09:28:05;14.88;;;8.50;;
60078;SDS011;45951;45.824;8.824;2024-02-04T09:29:45;14.32;;;9.38;;
60078;SDS011;45951;45.824;8.824;2024-02-04T09:31:26;13.80;;;9.55;;
60078;SDS011;45951;45.824;8.824;2024-02-04T09:33:06;12.88;;;9.35;;
60078;SDS011;45951;45.824;8.824;2024-02-04T09:34:48;12.57;;;8.50;;
60078;SDS011;45951;45.824;8.824;2024-02-04T09:36:28;12.25;;;9.27;;
60078;SDS011;45951;45.824;8.824;2024-02-04T09:38:08;13.00;;;8.57;;
60078;SDS011;45951;45.824;8.824;2024-02-04T09:39:49;13.75;;;8.80;;
60078;SDS011;45951;45.824;8.824;2024-02-04T09:41:29;12.23;;;9.15;;
60078;SDS011;45951;45.824;8.824;2024-02-04T09:43:09;12.25;;;9.05;;
60078;SDS011;45951;45.824;8.824;2024-02-04T09:44:50;13.77;;;9.10;;
60078;SDS011;45951;45.824;8.824;2024-02-04T09:46:30;12.80;;;9.38;;
60078;SDS011;45951;45.824;8.824;2024-02-04T09:48:10;12.57;;;8.85;;
60078;SDS011;45951;45.824;8.824;2024-02-04T09:49:52;13.73;;;9.23;;
60078;SDS011;45951;45.824;8.824;2024-02-04T09:51:36;12.52;;;9.10;;
60078;SDS011;45951;45.824;8.824;2024-02-04T09:53:16;12.60;;;9.17;;
60078;SDS011;45951;45.824;8.824;2024-02-04T09:55:01;14.45;;;9.30;;
60078;SDS011;45951;45.824;8.824;2024-02-04T09:56:43;12.77;;;9.43;;
60078;SDS011;45951;45.824;8.824;2024-02-04T09:58:23;13.23;;;9.27;;
60078;SDS011;45951;45.824;8.824;2024-02-04T10:00:04;16.13;;;11.45;;
60078;SDS011;45951;45.824;8.824;2024-02-04T10:01:44;14.32;;;11.15;;
60078;SDS011;45951;45.824;8.824;2024-02-04T10:03:25;15.48;;;11.40;;